createdAt,value
2022-07-29T00:00:22.180Z,22.06
2022-07-29T00:03:07.693Z,22.00
2022-07-29T00:13:36.836Z,21.54
2022-07-29T00:17:14.434Z,21.27
2022-07-29T00:21:37.860Z,21.13
2022-07-29T00:24:41.645Z,21.07
2022-07-29T00:28:05.923Z,21.07
2022-07-29T00:30:56.349Z,20.79
2022-07-29T00:34:05.253Z,20.66
2022-07-29T00:37:31.830Z,20.65
2022-07-29T00:40:18.643Z,20.51
2022-07-29T00:43:06.806Z,20.48
2022-07-29T00:45:41.679Z,20.32
2022-07-29T00:48:15.092Z,20.27
2022-07-29T00:50:56.409Z,20.24
2022-07-29T00:53:42.697Z,20.18
2022-07-29T00:56:36.420Z,20.14
2022-07-29T00:59:18.414Z,20.13
2022-07-29T01:02:18.912Z,20.07
2022-07-29T01:04:54.829Z,19.97
2022-07-29T01:07:40.331Z,19.86
2022-07-29T01:14:33.830Z,19.95
2022-07-29T01:17:53.516Z,20.05
2022-07-29T01:31:13.412Z,20.76
2022-07-29T01:34:45.161Z,20.96
2022-07-29T01:37:42.729Z,21.23
2022-07-29T01:40:56.107Z,21.30
2022-07-29T01:43:53.705Z,21.26
2022-07-29T01:46:36.254Z,21.36
2022-07-29T01:49:47.919Z,21.40
2022-07-29T01:52:33.037Z,21.43
2022-07-29T01:55:19.236Z,21.56
2022-07-29T01:58:01.403Z,21.50
2022-07-29T02:00:37.270Z,21.34
2022-07-29T02:10:59.580Z,21.14
2022-07-29T02:25:37.604Z,21.18
2022-07-29T02:28:34.311Z,21.19
2022-07-29T02:35:10.047Z,21.06
2022-07-29T02:41:30.926Z,21.06
2022-07-29T02:44:32.610Z,20.96
2022-07-29T02:47:45.910Z,20.87
2022-07-29T02:54:28.863Z,20.66
2022-07-29T02:57:54.104Z,20.53
2022-07-29T03:00:29.667Z,20.34
2022-07-29T03:03:26.678Z,20.30
2022-07-29T03:06:28.192Z,20.20
2022-07-29T03:09:13.588Z,20.11
2022-07-29T03:11:50.693Z,20.07
2022-07-29T03:14:28.077Z,20.12
2022-07-29T03:20:35.281Z,19.93
2022-07-29T03:23:35.231Z,19.76
2022-07-29T03:26:11.921Z,19.67
2022-07-29T03:29:01.638Z,19.64
2022-07-29T03:32:25.251Z,19.60
2022-07-29T03:34:58.770Z,19.56
2022-07-29T03:40:50.331Z,19.45
2022-07-29T03:43:49.816Z,19.41
2022-07-29T03:46:35.675Z,19.41
2022-07-29T03:49:45.078Z,19.29
2022-07-29T03:53:05.568Z,19.35
2022-07-29T03:55:46.453Z,19.30
2022-07-29T03:58:41.928Z,19.40
2022-07-29T04:01:21.977Z,19.50
2022-07-29T04:04:29.257Z,19.48
2022-07-29T04:11:28.335Z,19.58
2022-07-29T04:14:09.228Z,19.63
2022-07-29T04:16:43.161Z,19.61
2022-07-29T04:19:18.333Z,19.71
2022-07-29T04:25:10.038Z,19.90
2022-07-29T04:28:03.359Z,20.05
2022-07-29T04:31:33.735Z,20.17
2022-07-29T04:34:54.097Z,20.32
2022-07-29T04:37:26.507Z,20.42
2022-07-29T04:40:15.884Z,20.54
2022-07-29T04:42:58.673Z,20.69
2022-07-29T04:45:34.477Z,20.83
2022-07-29T04:51:49.026Z,21.20
2022-07-29T04:58:13.504Z,21.55
2022-07-29T05:00:54.548Z,21.72
2022-07-29T05:03:26.660Z,21.83
2022-07-29T05:05:58.421Z,21.98
2022-07-29T05:08:28.049Z,22.14
2022-07-29T05:11:11.806Z,22.23
2022-07-29T05:13:54.897Z,22.34
2022-07-29T05:16:32.663Z,22.43
2022-07-29T05:20:00.376Z,22.47
2022-07-29T05:22:59.339Z,22.61
2022-07-29T05:25:40.793Z,22.76
2022-07-29T05:28:17.271Z,22.93
2022-07-29T05:30:58.121Z,23.05
2022-07-29T05:33:34.969Z,23.16
2022-07-29T05:36:17.627Z,23.31
2022-07-29T05:38:55.447Z,23.37
2022-07-29T05:41:43.451Z,23.51
2022-07-29T05:45:14.218Z,23.57
2022-07-29T05:48:07.450Z,23.58
2022-07-29T05:50:37.102Z,23.60
2022-07-29T05:57:54.842Z,23.69
2022-07-29T06:00:45.002Z,23.75
2022-07-29T06:03:20.329Z,23.81
2022-07-29T06:06:27.671Z,23.90
2022-07-29T06:09:12.590Z,23.95
2022-07-29T06:11:46.311Z,23.97
2022-07-29T06:14:59.998Z,24.03
2022-07-29T06:17:38.257Z,24.09
2022-07-29T06:20:35.799Z,24.14
2022-07-29T06:51:39.496Z,25.04
2022-07-29T06:54:10.850Z,25.13
2022-07-29T07:22:39.048Z,26.49
2022-07-29T07:53:27.946Z,27.18
2022-07-29T07:56:12.481Z,27.03
2022-07-29T07:59:16.051Z,27.01
2022-07-29T08:01:55.764Z,27.08
2022-07-29T08:04:55.740Z,27.09
2022-07-29T08:07:33.298Z,27.27
2022-07-29T08:10:38.924Z,27.41
2022-07-29T08:16:41.006Z,27.94
2022-07-29T08:22:48.683Z,28.40
2022-07-29T08:29:27.031Z,28.64
2022-07-29T08:32:54.464Z,28.84
2022-07-29T08:35:37.309Z,29.02
2022-07-29T08:41:44.661Z,29.42
2022-07-29T08:45:00.845Z,29.42
2022-07-29T08:47:55.251Z,29.59
2022-07-29T08:51:04.322Z,29.83
2022-07-29T08:57:37.629Z,30.07
2022-07-29T09:00:31.666Z,30.01
2022-07-29T09:03:10.203Z,30.06
2022-07-29T09:06:03.027Z,30.10
2022-07-29T09:08:43.104Z,30.23
2022-07-29T09:16:52.371Z,30.28
2022-07-29T09:23:36.474Z,30.13
2022-07-29T09:33:02.372Z,30.50
2022-07-29T10:04:08.514Z,31.77
2022-07-29T10:12:07.413Z,31.79
2022-07-29T10:30:04.897Z,31.56
2022-07-29T10:33:23.770Z,31.57
2022-07-29T10:41:51.007Z,31.74
2022-07-29T10:44:37.612Z,31.76
2022-07-29T11:23:34.011Z,32.45
2022-07-29T11:38:36.338Z,32.54
2022-07-29T11:42:13.657Z,32.47
2022-07-29T11:45:43.639Z,32.81
2022-07-29T11:52:03.391Z,32.63
2022-07-29T12:05:52.116Z,32.03
2022-07-29T12:08:23.225Z,32.11
2022-07-29T12:11:04.525Z,32.33
2022-07-29T12:19:01.966Z,31.79
2022-07-29T12:35:00.621Z,32.25
2022-07-29T12:37:44.121Z,32.69
2022-07-29T12:58:16.747Z,31.84
2022-07-29T13:01:47.429Z,31.64
2022-07-29T13:32:52.794Z,31.33
2022-07-29T13:49:05.156Z,31.81
2022-07-29T14:41:57.883Z,35.03
2022-07-29T14:44:33.736Z,34.94
2022-07-29T14:53:02.672Z,34.96
2022-07-29T16:53:33.070Z,30.74
2022-07-29T17:43:22.831Z,28.77
2022-07-29T17:47:38.442Z,28.68
2022-07-29T18:47:13.090Z,26.48
2022-07-29T18:54:21.694Z,26.40
2022-07-29T18:57:53.314Z,26.59
2022-07-29T19:00:07.217Z,26.56
2022-07-29T19:02:45.770Z,26.60
2022-07-29T19:05:50.373Z,26.83
2022-07-29T19:09:04.849Z,27.09
2022-07-29T19:16:13.760Z,26.66
2022-07-29T19:19:11.150Z,26.45
2022-07-29T19:21:51.644Z,26.23
2022-07-29T19:24:26.593Z,26.23
2022-07-29T19:27:01.845Z,26.18
2022-07-29T19:29:47.599Z,26.14
2022-07-29T19:32:25.049Z,26.06
2022-07-29T19:35:24.645Z,26.16
2022-07-29T19:38:11.668Z,26.32
2022-07-29T19:40:47.892Z,26.07
2022-07-29T19:43:50.888Z,25.79
2022-07-29T19:46:15.225Z,25.63
2022-07-29T19:48:45.867Z,25.55
2022-07-29T19:51:21.316Z,25.46
2022-07-29T19:54:01.594Z,25.24
2022-07-29T19:56:45.392Z,25.05
2022-07-29T19:59:17.424Z,24.93
2022-07-29T20:02:00.393Z,24.75
2022-07-29T20:04:29.645Z,24.59
2022-07-29T20:07:03.752Z,24.53
2022-07-29T20:09:33.659Z,24.46
2022-07-29T20:12:04.962Z,24.46
2022-07-29T20:14:35.431Z,24.35
2022-07-29T20:17:13.662Z,24.19
2022-07-29T20:19:46.306Z,24.15
2022-07-29T20:22:21.550Z,23.97
2022-07-29T20:24:56.253Z,23.94
2022-07-29T20:27:25.632Z,23.85
2022-07-29T20:29:55.094Z,23.72
2022-07-29T20:32:23.847Z,23.67
2022-07-29T20:34:53.890Z,23.62
2022-07-29T20:37:24.900Z,23.56
2022-07-29T20:39:54.055Z,23.48
2022-07-29T20:42:23.136Z,23.33
2022-07-29T20:44:54.203Z,23.31
2022-07-29T20:47:27.072Z,23.25
2022-07-29T20:49:58.491Z,23.24
2022-07-29T20:52:31.657Z,23.27
2022-07-29T20:55:04.049Z,23.28
2022-07-29T20:57:40.252Z,23.22
2022-07-29T21:01:05.255Z,23.25
2022-07-29T21:03:37.084Z,23.14
2022-07-29T21:06:09.437Z,23.12
2022-07-29T21:09:01.943Z,23.08
2022-07-29T21:11:44.038Z,23.05
2022-07-29T21:14:20.825Z,23.10
2022-07-29T21:16:50.572Z,23.05
2022-07-29T21:19:24.567Z,23.02
2022-07-29T21:21:56.815Z,23.00
2022-07-29T21:24:38.836Z,22.95
2022-07-29T21:27:24.998Z,22.91
2022-07-29T21:29:54.655Z,22.97
2022-07-29T21:32:27.554Z,23.11
2022-07-29T21:34:59.949Z,23.19
2022-07-29T21:37:29.021Z,23.18
2022-07-29T21:40:00.256Z,23.21
2022-07-29T21:42:30.217Z,23.25
2022-07-29T21:44:59.425Z,23.16
2022-07-29T21:47:29.983Z,23.16
2022-07-29T21:50:00.858Z,23.12
2022-07-29T21:52:29.618Z,23.10
2022-07-29T21:55:08.247Z,23.20
2022-07-29T21:57:39.732Z,23.29
2022-07-29T22:00:14.659Z,23.42
2022-07-29T22:02:43.556Z,23.54
2022-07-29T22:05:12.638Z,23.82
2022-07-29T22:07:54.429Z,23.84
2022-07-29T22:10:28.042Z,24.10
2022-07-29T22:12:58.318Z,23.99
2022-07-29T22:15:33.592Z,23.73
2022-07-29T22:18:05.162Z,24.02
2022-07-29T22:20:34.035Z,23.71
2022-07-29T22:23:03.912Z,23.83
2022-07-29T22:25:34.999Z,23.66
2022-07-29T22:28:03.828Z,23.46
2022-07-29T22:30:32.703Z,23.35
2022-07-29T22:33:04.463Z,23.52
2022-07-29T22:35:33.402Z,23.54
2022-07-29T22:38:02.311Z,23.57
2022-07-29T22:40:33.791Z,23.55
2022-07-29T22:43:02.766Z,23.46
2022-07-29T22:45:31.441Z,23.56
2022-07-29T22:48:01.731Z,23.57
2022-07-29T22:50:32.226Z,23.53
2022-07-29T22:53:00.944Z,23.38
2022-07-29T22:55:29.738Z,23.37
2022-07-29T22:58:04.333Z,23.33
2022-07-29T23:00:33.001Z,23.52
2022-07-29T23:03:02.082Z,23.45
2022-07-29T23:05:31.207Z,23.50
2022-07-29T23:07:59.627Z,23.46
2022-07-29T23:10:30.370Z,23.48
2022-07-29T23:13:14.030Z,23.46
2022-07-29T23:15:50.968Z,23.49
2022-07-29T23:18:20.773Z,23.56
2022-07-29T23:20:49.707Z,23.56
2022-07-29T23:23:23.088Z,23.55
2022-07-29T23:25:51.783Z,23.67
2022-07-29T23:28:22.177Z,23.63
2022-07-29T23:30:56.234Z,23.52
2022-07-29T23:33:27.215Z,23.51
2022-07-29T23:35:58.419Z,23.65
2022-07-29T23:38:31.465Z,23.70
2022-07-29T23:41:01.737Z,23.63
2022-07-29T23:43:32.332Z,23.71
2022-07-29T23:46:01.365Z,23.65
2022-07-29T23:48:33.420Z,23.57
2022-07-29T23:51:02.066Z,23.51
2022-07-29T23:53:30.666Z,23.69
2022-07-29T23:55:59.590Z,23.69
2022-07-29T23:58:28.455Z,23.65
